createdAt,value
2023-03-05T00:01:40.819Z,49.25
2023-03-05T00:04:14.147Z,47.97
2023-03-05T00:06:42.687Z,46.47
2023-03-05T00:09:11.280Z,45.30
2023-03-05T00:11:39.844Z,58.83
2023-03-05T00:14:08.302Z,53.92
2023-03-05T00:16:36.838Z,54.35
2023-03-05T00:19:05.682Z,46.25
2023-03-05T00:21:37.740Z,44.42
2023-03-05T00:24:09.165Z,47.10
2023-03-05T00:26:39.150Z,49.92
2023-03-05T00:29:08.875Z,52.13
2023-03-05T00:31:38.805Z,45.28
2023-03-05T00:34:10.521Z,48.92
2023-03-05T00:36:42.563Z,44.47
2023-03-05T00:39:11.608Z,53.45
2023-03-05T00:41:40.284Z,50.95
2023-03-05T00:44:08.959Z,52.58
2023-03-05T00:46:37.808Z,51.00
2023-03-05T00:49:06.425Z,53.88
2023-03-05T00:51:35.256Z,54.00
2023-03-05T00:54:05.559Z,46.90
2023-03-05T00:56:34.199Z,44.83
2023-03-05T00:59:02.896Z,46.53
2023-03-05T01:01:31.662Z,47.70
2023-03-05T01:04:01.565Z,50.78
2023-03-05T01:06:30.686Z,51.67
2023-03-05T01:08:59.667Z,49.38
2023-03-05T01:11:29.589Z,46.17
2023-03-05T01:13:58.117Z,52.72
2023-03-05T01:16:26.636Z,42.40
2023-03-05T01:18:55.299Z,44.10
2023-03-05T01:21:23.939Z,41.83
2023-03-05T01:23:52.534Z,47.25
2023-03-05T01:26:21.077Z,50.58
2023-03-05T01:28:50.939Z,48.08
2023-03-05T01:31:19.552Z,45.88
2023-03-05T01:33:48.480Z,48.22
2023-03-05T01:36:17.688Z,47.50
2023-03-05T01:38:47.632Z,48.15
2023-03-05T01:41:18.072Z,49.53
2023-03-05T01:43:47.518Z,50.63
2023-03-05T01:46:36.320Z,41.35
2023-03-05T01:49:16.806Z,49.45
2023-03-05T01:52:02.988Z,48.15
2023-03-05T01:54:35.348Z,49.50
2023-03-05T01:57:09.235Z,47.95
2023-03-05T01:59:40.000Z,52.42
2023-03-05T02:02:10.344Z,44.65
2023-03-05T02:04:43.989Z,60.78
2023-03-05T02:07:12.957Z,48.53
2023-03-05T02:09:41.910Z,49.88
2023-03-05T02:12:11.921Z,47.25
2023-03-05T02:14:42.561Z,54.97
2023-03-05T02:17:13.404Z,49.80
2023-03-05T02:19:52.523Z,51.60
2023-03-05T02:22:24.354Z,49.83
2023-03-05T02:24:53.898Z,50.65
2023-03-05T02:27:34.867Z,52.83
2023-03-05T02:30:04.651Z,52.58
2023-03-05T02:32:33.229Z,46.97
2023-03-05T02:35:02.052Z,53.42
2023-03-05T02:37:32.386Z,47.55
2023-03-05T02:40:01.340Z,53.40
2023-03-05T02:42:33.644Z,47.80
2023-03-05T02:45:03.485Z,59.63
2023-03-05T02:47:32.127Z,48.47
2023-03-05T02:50:00.739Z,50.53
2023-03-05T02:52:32.353Z,47.20
2023-03-05T02:55:01.616Z,51.30
2023-03-05T02:57:32.177Z,44.10
2023-03-05T03:00:00.802Z,45.60
2023-03-05T03:02:29.457Z,42.13
2023-03-05T03:04:58.037Z,44.72
2023-03-05T03:07:26.621Z,43.85
2023-03-05T03:09:56.649Z,47.50
2023-03-05T03:12:25.154Z,46.92
2023-03-05T03:14:53.602Z,48.75
2023-03-05T03:17:22.276Z,45.90
2023-03-05T03:19:50.857Z,52.10
2023-03-05T03:22:19.329Z,49.08
2023-03-05T03:24:47.899Z,45.00
2023-03-05T03:27:17.822Z,53.53
2023-03-05T03:29:46.300Z,44.33
2023-03-05T03:32:14.936Z,50.03
2023-03-05T03:34:44.675Z,49.88
2023-03-05T03:37:13.215Z,51.60
2023-03-05T03:39:41.822Z,60.92
2023-03-05T03:42:10.371Z,41.78
2023-03-05T03:44:40.273Z,53.92
2023-03-05T03:47:08.810Z,42.80
2023-03-05T03:49:37.331Z,46.33
2023-03-05T03:52:06.284Z,43.55
2023-03-05T03:54:35.324Z,38.70
2023-03-05T03:57:03.811Z,43.25
2023-03-05T03:59:32.386Z,51.05
2023-03-05T04:02:02.253Z,41.95
2023-03-05T04:04:30.842Z,37.05
2023-03-05T04:06:59.375Z,48.15
2023-03-05T04:09:27.788Z,38.60
2023-03-05T04:11:56.252Z,45.45
2023-03-05T04:14:26.745Z,38.85
2023-03-05T04:16:55.238Z,40.42
2023-03-05T04:19:25.284Z,47.60
2023-03-05T04:21:53.709Z,42.75
2023-03-05T04:24:22.172Z,37.20
2023-03-05T04:26:50.611Z,51.63
2023-03-05T04:29:19.302Z,43.00
2023-03-05T04:31:47.815Z,37.85
2023-03-05T04:34:16.401Z,42.22
2023-03-05T04:36:46.220Z,42.90
2023-03-05T04:39:14.720Z,41.67
2023-03-05T04:41:43.256Z,44.70
2023-03-05T04:44:11.760Z,44.60
2023-03-05T04:46:40.612Z,38.65
2023-03-05T04:49:09.205Z,35.65
2023-03-05T04:51:37.808Z,39.10
2023-03-05T04:54:07.832Z,37.60
2023-03-05T04:56:36.343Z,46.65
2023-03-05T04:59:05.185Z,38.75
2023-03-05T05:01:35.555Z,37.80
2023-03-05T05:04:04.215Z,40.70
2023-03-05T05:06:33.175Z,39.25
2023-03-05T05:09:01.756Z,38.85
2023-03-05T05:11:31.738Z,37.60
2023-03-05T05:14:00.281Z,36.40
2023-03-05T05:16:28.791Z,37.35
2023-03-05T05:18:57.283Z,36.28
2023-03-05T05:21:25.955Z,41.17
2023-03-05T05:23:54.454Z,37.35
2023-03-05T05:26:22.941Z,39.40
2023-03-05T05:28:52.866Z,46.75
2023-03-05T05:31:21.402Z,39.85
2023-03-05T05:33:50.087Z,41.10
2023-03-05T05:36:20.221Z,49.53
2023-03-05T05:38:48.726Z,37.33
2023-03-05T05:41:19.316Z,35.60
2023-03-05T05:43:47.883Z,36.47
2023-03-05T05:46:19.214Z,38.53
2023-03-05T05:48:48.222Z,37.70
2023-03-05T05:51:18.800Z,43.03
2023-03-05T05:53:48.202Z,36.60
2023-03-05T05:56:17.750Z,38.00
2023-03-05T05:58:48.352Z,39.63
2023-03-05T06:01:22.130Z,34.22
2023-03-05T06:03:50.900Z,35.60
2023-03-05T06:06:21.102Z,37.10
2023-03-05T06:08:50.454Z,40.28
2023-03-05T06:11:19.874Z,38.47
2023-03-05T06:13:48.943Z,31.77
2023-03-05T06:16:20.576Z,37.40
2023-03-05T06:18:49.256Z,40.20
2023-03-05T06:21:19.262Z,31.55
2023-03-05T06:23:49.060Z,38.05
2023-03-05T06:26:19.809Z,36.78
2023-03-05T06:28:48.396Z,37.83
2023-03-05T06:31:21.978Z,36.97
2023-03-05T06:33:51.521Z,42.97
2023-03-05T06:36:21.894Z,39.95
2023-03-05T06:38:53.208Z,42.58
2023-03-05T06:41:24.250Z,33.22
2023-03-05T06:43:52.849Z,38.40
2023-03-05T06:46:24.919Z,43.90
2023-03-05T06:48:57.220Z,34.60
2023-03-05T06:51:28.086Z,36.13
2023-03-05T06:53:57.748Z,48.25
2023-03-05T06:56:26.247Z,36.40
2023-03-05T06:58:55.056Z,42.30
2023-03-05T07:01:24.931Z,34.20
2023-03-05T07:03:55.273Z,33.90
2023-03-05T07:06:24.075Z,37.45
2023-03-05T07:08:52.542Z,30.15
2023-03-05T07:11:22.132Z,40.30
2023-03-05T07:13:51.633Z,36.33
2023-03-05T07:16:25.308Z,33.40
2023-03-05T07:18:56.044Z,29.85
2023-03-05T07:21:26.831Z,37.50
2023-03-05T07:23:56.517Z,45.13
2023-03-05T07:26:25.854Z,35.95
2023-03-05T07:28:54.501Z,37.55
2023-03-05T07:31:27.379Z,37.53
2023-03-05T07:33:57.969Z,39.70
2023-03-05T07:36:26.596Z,35.92
2023-03-05T07:38:55.434Z,40.67
2023-03-05T07:41:23.939Z,37.70
2023-03-05T07:43:55.007Z,31.15
2023-03-05T07:46:25.931Z,38.42
2023-03-05T07:48:54.753Z,36.25
2023-03-05T07:51:26.043Z,38.92
2023-03-05T07:53:57.556Z,39.28
2023-03-05T07:56:27.207Z,35.00
2023-03-05T07:58:55.691Z,37.25
2023-03-05T08:01:24.362Z,38.28
2023-03-05T08:03:53.051Z,38.05
2023-03-05T08:06:24.056Z,38.53
2023-03-05T08:08:52.643Z,38.70
2023-03-05T08:11:21.362Z,39.30
2023-03-05T08:13:49.870Z,39.88
2023-03-05T08:16:20.714Z,38.35
2023-03-05T08:18:49.877Z,35.15
2023-03-05T08:21:20.304Z,33.78
2023-03-05T08:23:50.508Z,38.78
2023-03-05T08:26:21.434Z,39.55
2023-03-05T08:28:50.285Z,34.67
2023-03-05T08:31:21.406Z,33.53
2023-03-05T08:33:50.531Z,37.42
2023-03-05T08:36:19.072Z,37.60
2023-03-05T08:38:48.733Z,35.55
2023-03-05T08:41:19.936Z,36.80
2023-03-05T08:43:48.503Z,35.15
2023-03-05T08:46:18.367Z,35.47
2023-03-05T08:48:46.961Z,37.60
2023-03-05T08:51:18.068Z,36.67
2023-03-05T08:53:47.795Z,34.38
2023-03-05T08:56:17.628Z,35.63
2023-03-05T08:58:48.258Z,36.15
2023-03-05T09:01:16.987Z,37.38
2023-03-05T09:03:46.038Z,43.38
2023-03-05T09:06:14.528Z,34.83
2023-03-05T09:08:43.571Z,39.00
2023-03-05T09:11:14.659Z,34.03
2023-03-05T09:13:44.923Z,35.70
2023-03-05T09:16:15.338Z,43.55
2023-03-05T09:18:44.565Z,38.95
2023-03-05T09:21:14.818Z,39.42
2023-03-05T09:23:44.306Z,36.35
2023-03-05T09:26:14.087Z,44.17
2023-03-05T09:28:44.208Z,36.35
2023-03-05T09:31:13.588Z,44.83
2023-03-05T09:33:42.546Z,46.28
2023-03-05T09:36:20.413Z,42.60
2023-03-05T09:38:48.904Z,46.90
2023-03-05T09:41:23.260Z,38.00
2023-03-05T09:44:00.742Z,35.57
2023-03-05T09:46:39.149Z,37.10
2023-03-05T09:49:17.353Z,39.95
2023-03-05T09:51:47.851Z,43.72
2023-03-05T09:54:21.093Z,36.58
2023-03-05T09:56:52.543Z,40.70
2023-03-05T09:59:30.781Z,35.75
2023-03-05T10:02:04.557Z,41.15
2023-03-05T10:04:45.877Z,38.83
2023-03-05T10:07:19.718Z,41.13
2023-03-05T10:09:54.379Z,41.78
2023-03-05T10:12:34.686Z,47.10
2023-03-05T10:15:04.791Z,36.28
2023-03-05T10:17:55.281Z,38.38
2023-03-05T10:20:52.662Z,41.40
2023-03-05T10:23:30.202Z,39.50
2023-03-05T10:26:09.853Z,41.17
2023-03-05T10:28:47.482Z,47.13
2023-03-05T10:31:35.387Z,38.55
2023-03-05T10:34:28.130Z,45.45
2023-03-05T10:37:11.459Z,43.63
2023-03-05T10:40:00.520Z,39.88
2023-03-05T10:42:38.941Z,46.30
2023-03-05T10:45:16.363Z,43.72
2023-03-05T10:47:51.091Z,50.75
2023-03-05T10:50:22.887Z,47.60
2023-03-05T10:53:03.909Z,51.63
2023-03-05T10:55:32.389Z,45.47
2023-03-05T10:58:02.240Z,46.75
2023-03-05T11:00:32.406Z,45.30
2023-03-05T11:03:04.713Z,53.40
2023-03-05T11:05:44.485Z,47.28
2023-03-05T11:08:31.905Z,41.45
2023-03-05T11:11:21.848Z,40.17
2023-03-05T11:13:56.479Z,47.40
2023-03-05T11:16:28.238Z,44.72
2023-03-05T11:19:26.961Z,46.42
2023-03-05T11:22:10.973Z,48.85
2023-03-05T11:24:41.197Z,51.13
2023-03-05T11:27:25.390Z,42.38
2023-03-05T11:29:54.217Z,48.60
2023-03-05T11:32:24.631Z,45.00
2023-03-05T11:34:56.601Z,44.03
2023-03-05T11:37:27.243Z,41.63
2023-03-05T11:40:20.657Z,40.13
2023-03-05T11:42:54.785Z,43.97
2023-03-05T11:45:25.040Z,44.20
2023-03-05T11:47:56.205Z,43.47
2023-03-05T11:50:28.823Z,48.55
2023-03-05T11:53:00.668Z,43.85
2023-03-05T11:55:31.738Z,47.75
2023-03-05T11:58:17.832Z,44.85
2023-03-05T12:00:48.408Z,45.97
2023-03-05T12:03:20.274Z,44.85
2023-03-05T12:05:54.620Z,45.72
2023-03-05T12:08:28.730Z,47.95
2023-03-05T12:10:57.671Z,44.75
2023-03-05T12:13:32.681Z,48.90
2023-03-05T12:16:24.461Z,46.53
2023-03-05T12:18:59.677Z,48.92
2023-03-05T12:24:03.408Z,44.55
2023-03-05T12:27:09.823Z,41.92
2023-03-05T12:32:43.671Z,43.78
2023-03-05T12:35:25.021Z,46.95
2023-03-05T12:38:24.134Z,40.78
2023-03-05T12:40:52.930Z,43.58
2023-03-05T12:43:32.840Z,44.20
2023-03-05T12:46:25.084Z,43.97
2023-03-05T12:48:53.968Z,40.72
2023-03-05T12:51:35.069Z,44.67
2023-03-05T12:54:34.239Z,47.30
2023-03-05T12:57:04.894Z,46.30
2023-03-05T12:59:46.147Z,42.10
2023-03-05T13:02:24.576Z,40.72
2023-03-05T13:04:58.439Z,44.60
2023-03-05T13:07:26.946Z,47.67
2023-03-05T13:09:58.266Z,43.38
2023-03-05T13:12:29.183Z,39.13
2023-03-05T13:15:03.777Z,41.47
2023-03-05T13:17:44.474Z,43.47
2023-03-05T13:20:38.691Z,47.15
2023-03-05T13:23:20.679Z,47.72
2023-03-05T13:26:04.192Z,42.38
2023-03-05T13:28:33.952Z,48.53
2023-03-05T13:31:04.851Z,43.22
2023-03-05T13:33:35.468Z,39.80
2023-03-05T13:36:05.409Z,38.30
2023-03-05T13:38:37.787Z,44.60
2023-03-05T13:41:19.645Z,40.85
2023-03-05T13:43:50.620Z,37.78
2023-03-05T13:46:31.280Z,38.45
2023-03-05T13:49:15.639Z,41.33
2023-03-05T13:51:45.421Z,42.13
2023-03-05T13:54:16.827Z,42.47
2023-03-05T13:56:58.874Z,37.53
2023-03-05T13:59:29.695Z,42.50
2023-03-05T14:02:00.013Z,38.38
2023-03-05T14:04:30.187Z,43.97
2023-03-05T14:07:01.523Z,38.20
2023-03-05T14:09:33.328Z,42.50
2023-03-05T14:12:06.509Z,42.58
2023-03-05T14:14:38.373Z,45.22
2023-03-05T14:17:23.729Z,40.00
2023-03-05T14:19:52.442Z,44.10
2023-03-05T14:22:32.866Z,45.13
2023-03-05T14:25:01.315Z,37.50
2023-03-05T14:27:35.590Z,45.63
2023-03-05T14:30:05.610Z,43.80
2023-03-05T14:32:37.266Z,41.83
2023-03-05T14:35:07.678Z,47.65
2023-03-05T14:37:37.805Z,42.45
2023-03-05T14:40:08.656Z,35.85
2023-03-05T14:42:39.707Z,37.50
2023-03-05T14:45:16.426Z,41.78
2023-03-05T14:47:45.405Z,39.10
2023-03-05T14:50:17.607Z,34.28
2023-03-05T14:52:46.866Z,39.42
2023-03-05T14:55:17.874Z,36.65
2023-03-05T14:57:48.919Z,40.75
2023-03-05T15:00:18.430Z,39.40
2023-03-05T15:02:47.037Z,37.50
2023-03-05T15:05:15.705Z,36.45
2023-03-05T15:07:45.566Z,38.35
2023-03-05T15:10:16.212Z,36.35
2023-03-05T15:12:44.729Z,37.38
2023-03-05T15:15:15.875Z,33.58
2023-03-05T15:17:47.558Z,37.55
2023-03-05T15:20:23.071Z,34.92
2023-03-05T15:22:51.625Z,40.22
2023-03-05T15:25:20.730Z,38.30
2023-03-05T15:27:49.284Z,32.03
2023-03-05T15:30:24.303Z,32.10
2023-03-05T15:32:56.639Z,41.90
2023-03-05T15:35:26.317Z,34.75
2023-03-05T15:37:54.870Z,34.15
2023-03-05T15:40:23.442Z,37.00
2023-03-05T15:42:52.131Z,35.85
2023-03-05T15:45:22.271Z,31.30
2023-03-05T15:47:51.039Z,35.72
2023-03-05T15:50:19.922Z,33.97
2023-03-05T15:52:48.477Z,35.13
2023-03-05T15:55:18.383Z,34.78
2023-03-05T15:57:48.463Z,34.83
2023-03-05T16:00:19.114Z,35.78
2023-03-05T16:02:49.060Z,35.85
2023-03-05T16:05:18.683Z,35.22
2023-03-05T16:07:50.248Z,35.20
2023-03-05T16:10:23.419Z,36.88
2023-03-05T16:12:55.720Z,38.15
2023-03-05T16:15:24.514Z,36.40
2023-03-05T16:17:56.638Z,33.40
2023-03-05T16:20:25.434Z,35.80
2023-03-05T16:22:53.877Z,33.78
2023-03-05T16:25:23.240Z,41.20
2023-03-05T16:27:51.641Z,35.20
2023-03-05T16:30:20.679Z,38.88
2023-03-05T16:32:49.178Z,39.78
2023-03-05T16:35:19.162Z,34.10
2023-03-05T16:37:47.754Z,34.03
2023-03-05T16:40:16.602Z,30.15
2023-03-05T16:42:45.475Z,29.67
2023-03-05T16:45:14.595Z,33.20
2023-03-05T16:47:43.247Z,30.85
2023-03-05T16:50:13.162Z,40.92
2023-03-05T16:52:43.034Z,32.15
2023-03-05T16:55:11.755Z,32.60
2023-03-05T16:57:40.611Z,36.83
2023-03-05T17:00:11.732Z,31.90
2023-03-05T17:02:40.368Z,39.83
2023-03-05T17:05:09.363Z,36.78
2023-03-05T17:07:37.845Z,32.90
2023-03-05T17:10:09.182Z,32.42
2023-03-05T17:12:37.676Z,38.50
2023-03-05T17:15:07.298Z,35.08
2023-03-05T17:17:35.852Z,35.47
2023-03-05T17:20:05.107Z,35.28
2023-03-05T17:22:33.594Z,37.10
2023-03-05T17:25:02.304Z,36.85
2023-03-05T17:27:32.368Z,37.15
2023-03-05T17:30:00.959Z,30.88
2023-03-05T17:32:29.642Z,29.88
2023-03-05T17:34:58.448Z,44.75
2023-03-05T17:37:26.998Z,33.00
2023-03-05T17:39:55.484Z,33.75
2023-03-05T17:42:24.010Z,30.48
2023-03-05T17:44:53.905Z,29.58
2023-03-05T17:47:23.405Z,28.73
2023-03-05T17:49:54.852Z,31.08
2023-03-05T17:52:23.624Z,35.72
2023-03-05T17:54:53.240Z,31.98
2023-03-05T17:57:21.863Z,33.38
2023-03-05T17:59:50.709Z,28.67
2023-03-05T18:02:20.580Z,32.83
2023-03-05T18:04:52.163Z,34.50
2023-03-05T18:07:20.708Z,36.90
2023-03-05T18:09:49.151Z,30.45
2023-03-05T18:12:17.664Z,35.85
2023-03-05T18:14:46.083Z,36.78
2023-03-05T18:17:14.583Z,37.88
2023-03-05T18:19:44.419Z,29.60
2023-03-05T18:22:12.882Z,28.90
2023-03-05T18:24:41.294Z,30.88
2023-03-05T18:27:09.764Z,33.40
2023-03-05T18:29:38.288Z,30.83
2023-03-05T18:32:07.436Z,29.10
2023-03-05T18:34:36.082Z,27.63
2023-03-05T18:37:05.925Z,27.83
2023-03-05T18:39:35.775Z,34.90
2023-03-05T18:42:04.236Z,30.45
2023-03-05T18:44:32.756Z,29.23
2023-03-05T18:47:01.197Z,30.02
2023-03-05T18:49:29.790Z,29.55
2023-03-05T18:51:58.759Z,29.17
2023-03-05T18:54:28.618Z,30.52
2023-03-05T18:56:57.208Z,32.38
2023-03-05T18:59:25.823Z,27.42
2023-03-05T19:01:54.301Z,30.88
2023-03-05T19:04:22.871Z,28.83
2023-03-05T19:06:51.439Z,31.35
2023-03-05T19:09:31.027Z,31.98
2023-03-05T19:12:00.941Z,32.35
2023-03-05T19:14:29.360Z,27.80
2023-03-05T19:16:57.820Z,25.50
2023-03-05T19:19:26.338Z,35.28
2023-03-05T19:21:57.164Z,27.75
2023-03-05T19:24:27.811Z,28.70
2023-03-05T19:27:00.355Z,33.20
2023-03-05T19:29:32.978Z,29.88
2023-03-05T19:32:01.773Z,31.10
2023-03-05T19:34:30.516Z,32.25
2023-03-05T19:36:59.052Z,36.10
2023-03-05T19:39:27.546Z,31.95
2023-03-05T19:41:56.126Z,29.50
2023-03-05T19:44:24.675Z,26.88
2023-03-05T19:46:54.835Z,25.10
2023-03-05T19:49:23.583Z,28.67
2023-03-05T19:51:52.433Z,24.80
2023-03-05T19:54:22.417Z,26.58
2023-03-05T19:56:54.911Z,29.90
2023-03-05T19:59:25.118Z,34.30
2023-03-05T20:01:57.583Z,27.20
2023-03-05T20:04:26.980Z,25.58
2023-03-05T20:06:55.512Z,31.40
2023-03-05T20:09:23.961Z,39.42
2023-03-05T20:11:52.440Z,42.13
2023-03-05T20:14:20.946Z,42.88
2023-03-05T20:16:49.372Z,44.08
2023-03-05T20:19:20.468Z,38.20
2023-03-05T20:21:49.236Z,42.15
2023-03-05T20:24:19.607Z,33.83
2023-03-05T20:26:49.123Z,35.65
2023-03-05T20:29:18.644Z,34.55
2023-03-05T20:31:48.150Z,35.92
2023-03-05T20:34:20.314Z,29.27
2023-03-05T20:36:49.313Z,30.98
2023-03-05T20:39:18.070Z,26.60
2023-03-05T20:41:47.132Z,29.52
2023-03-05T20:44:16.717Z,32.63
2023-03-05T20:46:52.158Z,27.73
2023-03-05T20:49:22.035Z,31.52
2023-03-05T20:51:51.410Z,30.15
2023-03-05T20:54:20.688Z,31.67
2023-03-05T20:56:49.256Z,36.80
2023-03-05T20:59:17.925Z,32.78
2023-03-05T21:01:46.579Z,31.83
2023-03-05T21:04:15.126Z,32.70
2023-03-05T21:06:44.981Z,28.67
2023-03-05T21:09:13.648Z,33.88
2023-03-05T21:11:42.180Z,37.65
2023-03-05T21:14:10.623Z,33.20
2023-03-05T21:16:39.344Z,27.85
2023-03-05T21:19:07.811Z,34.80
2023-03-05T21:21:36.345Z,38.47
2023-03-05T21:24:06.634Z,33.53
2023-03-05T21:26:35.384Z,36.85
2023-03-05T21:29:04.023Z,32.78
2023-03-05T21:31:32.553Z,34.38
2023-03-05T21:34:01.545Z,42.75
2023-03-05T21:36:30.082Z,34.53
2023-03-05T21:38:59.590Z,34.55
2023-03-05T21:41:29.903Z,34.90
2023-03-05T21:44:04.037Z,35.95
2023-03-05T21:46:32.718Z,37.22
2023-03-05T21:49:01.249Z,38.58
2023-03-05T21:51:38.532Z,38.95
2023-03-05T21:54:09.037Z,36.78
2023-03-05T21:56:39.065Z,32.20
2023-03-05T21:59:07.622Z,34.80
2023-03-05T22:01:36.348Z,28.10
2023-03-05T22:04:05.046Z,33.45
2023-03-05T22:06:33.710Z,30.48
2023-03-05T22:09:02.227Z,30.13
2023-03-05T22:11:30.831Z,30.58
2023-03-05T22:14:00.732Z,28.75
2023-03-05T22:16:30.032Z,28.00
2023-03-05T22:18:59.607Z,28.92
2023-03-05T22:21:29.519Z,32.03
2023-03-05T22:23:58.995Z,30.27
2023-03-05T22:26:33.924Z,31.65
2023-03-05T22:29:03.867Z,32.38
2023-03-05T22:31:32.580Z,31.15
2023-03-05T22:34:01.082Z,29.73
2023-03-05T22:36:29.575Z,30.83
2023-03-05T22:38:58.036Z,32.20
2023-03-05T22:41:26.659Z,25.73
2023-03-05T22:43:55.291Z,34.42
2023-03-05T22:46:27.457Z,26.20
2023-03-05T22:48:56.307Z,27.63
2023-03-05T22:51:25.236Z,30.05
2023-03-05T22:53:53.867Z,25.42
2023-03-05T22:56:22.511Z,31.08
2023-03-05T22:58:51.137Z,27.83
2023-03-05T23:01:21.147Z,26.15
2023-03-05T23:03:55.511Z,26.95
2023-03-05T23:06:24.759Z,25.35
2023-03-05T23:08:53.225Z,28.73
2023-03-05T23:11:21.794Z,25.33
2023-03-05T23:13:50.218Z,27.33
2023-03-05T23:16:18.793Z,24.13
2023-03-05T23:18:47.388Z,29.13
2023-03-05T23:21:17.297Z,27.08
2023-03-05T23:23:45.803Z,26.88
2023-03-05T23:26:14.681Z,29.55
2023-03-05T23:28:43.261Z,30.50
2023-03-05T23:31:11.945Z,26.27
2023-03-05T23:33:41.441Z,26.13
2023-03-05T23:36:11.207Z,26.83
2023-03-05T23:38:41.394Z,30.55
2023-03-05T23:41:10.392Z,28.08
2023-03-05T23:43:38.964Z,26.15
2023-03-05T23:46:12.345Z,28.50
2023-03-05T23:48:41.088Z,24.15
2023-03-05T23:51:10.339Z,27.77
2023-03-05T23:53:40.574Z,29.80
2023-03-05T23:56:12.939Z,25.98
2023-03-05T23:58:42.800Z,25.45
